sensor_id;sensor_type;location;lat;lon;timestamp;P1;durP1;ratioP1;P2;durP2;ratioP2
25936;SDS011;13733;51.178;4.450;2023-07-29T00:00:42;3.05;;;1.50;;
25936;SDS011;13733;51.178;4.450;2023-07-29T00:03:08;2.35;;;1.92;;
25936;SDS011;13733;51.178;4.450;2023-07-29T00:05:35;3.80;;;1.73;;
25936;SDS011;13733;51.178;4.450;2023-07-29T00:08:01;2.33;;;1.73;;
25936;SDS011;13733;51.178;4.450;2023-07-29T00:10:28;2.35;;;1.52;;
25936;SDS011;13733;51.178;4.450;2023-07-29T00:12:56;1.60;;;1.42;;
25936;SDS011;13733;51.178;4.450;2023-07-29T00:15:22;2.17;;;1.55;;
25936;SDS011;13733;51.178;4.450;2023-07-29T00:17:47;3.72;;;1.88;;
25936;SDS011;13733;51.178;4.450;2023-07-29T00:20:13;2.83;;;1.73;;
25936;SDS011;13733;51.178;4.450;2023-07-29T00:22:40;3.65;;;1.70;;
25936;SDS011;13733;51.178;4.450;2023-07-29T00:25:06;2.78;;;1.77;;
25936;SDS011;13733;51.178;4.450;2023-07-29T00:27:32;4.38;;;1.80;;
25936;SDS011;13733;51.178;4.450;2023-07-29T00:29:58;3.47;;;1.83;;
25936;SDS011;13733;51.178;4.450;2023-07-29T00:32:24;3.15;;;1.98;;
25936;SDS011;13733;51.178;4.450;2023-07-29T00:34:50;3.05;;;2.13;;
25936;SDS011;13733;51.178;4.450;2023-07-29T00:37:15;3.80;;;2.20;;
25936;SDS011;13733;51.178;4.450;2023-07-29T00:39:41;4.38;;;2.30;;
25936;SDS011;13733;51.178;4.450;2023-07-29T00:42:08;3.13;;;1.90;;
25936;SDS011;13733;51.178;4.450;2023-07-29T00:44:34;5.07;;;2.20;;
25936;SDS011;13733;51.178;4.450;2023-07-29T00:47:00;7.40;;;2.60;;
25936;SDS011;13733;51.178;4.450;2023-07-29T00:49:28;3.08;;;1.90;;
25936;SDS011;13733;51.178;4.450;2023-07-29T00:51:54;6.00;;;2.30;;
25936;SDS011;13733;51.178;4.450;2023-07-29T00:54:20;4.13;;;2.10;;
25936;SDS011;13733;51.178;4.450;2023-07-29T00:56:46;2.90;;;1.80;;
25936;SDS011;13733;51.178;4.450;2023-07-29T00:59:12;3.03;;;2.00;;
25936;SDS011;13733;51.178;4.450;2023-07-29T01:01:38;3.88;;;1.90;;
25936;SDS011;13733;51.178;4.450;2023-07-29T01:04:04;5.82;;;2.03;;
25936;SDS011;13733;51.178;4.450;2023-07-29T01:06:34;3.03;;;1.88;;
25936;SDS011;13733;51.178;4.450;2023-07-29T01:09:08;4.53;;;3.15;;
25936;SDS011;13733;51.178;4.450;2023-07-29T01:17:23;3.50;;;2.10;;
25936;SDS011;13733;51.178;4.450;2023-07-29T01:22:26;4.05;;;2.10;;
25936;SDS011;13733;51.178;4.450;2023-07-29T01:24:52;3.38;;;1.90;;
25936;SDS011;13733;51.178;4.450;2023-07-29T01:27:18;2.10;;;1.70;;
25936;SDS011;13733;51.178;4.450;2023-07-29T01:29:44;4.10;;;1.90;;
25936;SDS011;13733;51.178;4.450;2023-07-29T01:32:11;2.35;;;2.15;;
25936;SDS011;13733;51.178;4.450;2023-07-29T01:34:45;3.28;;;1.83;;
25936;SDS011;13733;51.178;4.450;2023-07-29T01:37:19;2.38;;;1.70;;
25936;SDS011;13733;51.178;4.450;2023-07-29T01:39:50;5.13;;;1.70;;
25936;SDS011;13733;51.178;4.450;2023-07-29T01:42:21;4.10;;;2.40;;
25936;SDS011;13733;51.178;4.450;2023-07-29T01:44:49;2.88;;;1.90;;
25936;SDS011;13733;51.178;4.450;2023-07-29T01:47:15;2.88;;;1.77;;
25936;SDS011;13733;51.178;4.450;2023-07-29T01:49:41;4.22;;;2.13;;
25936;SDS011;13733;51.178;4.450;2023-07-29T01:52:07;2.85;;;1.83;;
25936;SDS011;13733;51.178;4.450;2023-07-29T01:54:33;2.78;;;1.90;;
25936;SDS011;13733;51.178;4.450;2023-07-29T01:56:59;3.50;;;1.90;;
25936;SDS011;13733;51.178;4.450;2023-07-29T01:59:25;2.78;;;1.80;;
25936;SDS011;13733;51.178;4.450;2023-07-29T02:01:51;3.47;;;2.30;;
25936;SDS011;13733;51.178;4.450;2023-07-29T02:04:16;4.97;;;2.20;;
25936;SDS011;13733;51.178;4.450;2023-07-29T02:06:42;5.45;;;2.40;;
25936;SDS011;13733;51.178;4.450;2023-07-29T02:09:08;2.85;;;2.08;;
25936;SDS011;13733;51.178;4.450;2023-07-29T02:11:34;2.20;;;1.98;;
25936;SDS011;13733;51.178;4.450;2023-07-29T02:14:00;2.45;;;2.20;;
25936;SDS011;13733;51.178;4.450;2023-07-29T02:16:26;6.30;;;2.55;;
25936;SDS011;13733;51.178;4.450;2023-07-29T02:18:52;2.58;;;2.03;;
25936;SDS011;13733;51.178;4.450;2023-07-29T02:21:19;3.75;;;2.05;;
25936;SDS011;13733;51.178;4.450;2023-07-29T02:23:45;2.85;;;2.08;;
25936;SDS011;13733;51.178;4.450;2023-07-29T02:26:11;2.60;;;2.10;;
25936;SDS011;13733;51.178;4.450;2023-07-29T02:28:37;5.10;;;2.15;;
25936;SDS011;13733;51.178;4.450;2023-07-29T02:31:11;4.22;;;1.90;;
25936;SDS011;13733;51.178;4.450;2023-07-29T02:33:48;3.35;;;2.35;;
25936;SDS011;13733;51.178;4.450;2023-07-29T02:36:15;2.30;;;2.03;;
25936;SDS011;13733;51.178;4.450;2023-07-29T02:38:41;2.42;;;1.90;;
25936;SDS011;13733;51.178;4.450;2023-07-29T02:41:09;3.28;;;2.20;;
25936;SDS011;13733;51.178;4.450;2023-07-29T02:43:37;3.00;;;2.20;;
25936;SDS011;13733;51.178;4.450;2023-07-29T02:46:03;3.05;;;2.35;;
25936;SDS011;13733;51.178;4.450;2023-07-29T02:48:29;2.80;;;2.05;;
25936;SDS011;13733;51.178;4.450;2023-07-29T02:50:56;4.57;;;2.47;;
25936;SDS011;13733;51.178;4.450;2023-07-29T02:53:22;4.05;;;2.03;;
25936;SDS011;13733;51.178;4.450;2023-07-29T02:55:48;4.10;;;2.33;;
25936;SDS011;13733;51.178;4.450;2023-07-29T02:58:14;2.63;;;2.22;;
25936;SDS011;13733;51.178;4.450;2023-07-29T03:00:40;2.95;;;1.75;;
25936;SDS011;13733;51.178;4.450;2023-07-29T03:03:10;4.43;;;2.17;;
25936;SDS011;13733;51.178;4.450;2023-07-29T03:05:35;3.28;;;2.20;;
25936;SDS011;13733;51.178;4.450;2023-07-29T03:08:03;4.18;;;2.40;;
25936;SDS011;13733;51.178;4.450;2023-07-29T03:10:29;5.45;;;2.20;;
25936;SDS011;13733;51.178;4.450;2023-07-29T03:12:55;4.22;;;2.20;;
25936;SDS011;13733;51.178;4.450;2023-07-29T03:15:24;6.20;;;2.55;;
25936;SDS011;13733;51.178;4.450;2023-07-29T03:17:51;2.83;;;2.10;;
25936;SDS011;13733;51.178;4.450;2023-07-29T03:20:17;3.15;;;1.90;;
25936;SDS011;13733;51.178;4.450;2023-07-29T03:22:43;3.53;;;1.83;;
25936;SDS011;13733;51.178;4.450;2023-07-29T03:25:10;2.17;;;1.98;;
25936;SDS011;13733;51.178;4.450;2023-07-29T03:27:35;3.33;;;1.80;;
25936;SDS011;13733;51.178;4.450;2023-07-29T03:30:02;3.13;;;2.38;;
25936;SDS011;13733;51.178;4.450;2023-07-29T03:32:32;3.92;;;1.83;;
25936;SDS011;13733;51.178;4.450;2023-07-29T03:34:58;3.28;;;1.80;;
25936;SDS011;13733;51.178;4.450;2023-07-29T03:37:24;3.30;;;2.20;;
25936;SDS011;13733;51.178;4.450;2023-07-29T03:39:49;4.03;;;2.13;;
25936;SDS011;13733;51.178;4.450;2023-07-29T03:42:17;6.65;;;2.50;;
25936;SDS011;13733;51.178;4.450;2023-07-29T03:44:43;3.25;;;2.30;;
25936;SDS011;13733;51.178;4.450;2023-07-29T03:47:09;2.75;;;1.85;;
25936;SDS011;13733;51.178;4.450;2023-07-29T03:49:36;3.55;;;1.95;;
25936;SDS011;13733;51.178;4.450;2023-07-29T03:52:02;5.78;;;2.40;;
25936;SDS011;13733;51.178;4.450;2023-07-29T03:54:29;2.17;;;1.83;;
25936;SDS011;13733;51.178;4.450;2023-07-29T03:56:55;2.85;;;2.30;;
25936;SDS011;13733;51.178;4.450;2023-07-29T03:59:21;2.40;;;1.70;;
25936;SDS011;13733;51.178;4.450;2023-07-29T04:01:48;1.92;;;1.73;;
25936;SDS011;13733;51.178;4.450;2023-07-29T04:04:14;3.47;;;1.73;;
25936;SDS011;13733;51.178;4.450;2023-07-29T04:06:41;2.60;;;1.88;;
25936;SDS011;13733;51.178;4.450;2023-07-29T04:09:06;2.63;;;2.00;;
25936;SDS011;13733;51.178;4.450;2023-07-29T04:11:33;1.88;;;1.75;;
25936;SDS011;13733;51.178;4.450;2023-07-29T04:13:59;3.08;;;1.85;;
25936;SDS011;13733;51.178;4.450;2023-07-29T04:16:25;4.07;;;2.10;;
25936;SDS011;13733;51.178;4.450;2023-07-29T04:18:51;4.15;;;2.28;;
25936;SDS011;13733;51.178;4.450;2023-07-29T04:21:17;3.08;;;2.15;;
25936;SDS011;13733;51.178;4.450;2023-07-29T04:23:42;2.58;;;1.92;;
25936;SDS011;13733;51.178;4.450;2023-07-29T04:26:08;4.07;;;1.98;;
25936;SDS011;13733;51.178;4.450;2023-07-29T04:28:34;4.25;;;2.08;;
25936;SDS011;13733;51.178;4.450;2023-07-29T04:31:00;4.63;;;1.90;;
25936;SDS011;13733;51.178;4.450;2023-07-29T04:33:25;3.53;;;2.25;;
25936;SDS011;13733;51.178;4.450;2023-07-29T04:35:51;2.35;;;1.83;;
25936;SDS011;13733;51.178;4.450;2023-07-29T04:38:17;3.35;;;1.73;;
25936;SDS011;13733;51.178;4.450;2023-07-29T04:40:42;2.70;;;2.30;;
25936;SDS011;13733;51.178;4.450;2023-07-29T04:43:08;6.47;;;2.22;;
25936;SDS011;13733;51.178;4.450;2023-07-29T04:45:34;2.85;;;2.30;;
25936;SDS011;13733;51.178;4.450;2023-07-29T04:48:00;3.25;;;2.10;;
25936;SDS011;13733;51.178;4.450;2023-07-29T04:50:25;3.95;;;2.10;;
25936;SDS011;13733;51.178;4.450;2023-07-29T04:52:51;4.68;;;1.90;;
25936;SDS011;13733;51.178;4.450;2023-07-29T04:55:18;2.25;;;2.03;;
25936;SDS011;13733;51.178;4.450;2023-07-29T04:57:44;2.45;;;1.65;;
25936;SDS011;13733;51.178;4.450;2023-07-29T05:00:10;5.13;;;2.00;;
25936;SDS011;13733;51.178;4.450;2023-07-29T05:02:36;4.63;;;1.77;;
25936;SDS011;13733;51.178;4.450;2023-07-29T05:05:01;2.75;;;1.63;;
25936;SDS011;13733;51.178;4.450;2023-07-29T05:07:28;4.47;;;2.05;;
25936;SDS011;13733;51.178;4.450;2023-07-29T05:09:53;3.85;;;2.10;;
25936;SDS011;13733;51.178;4.450;2023-07-29T05:12:19;2.10;;;1.70;;
25936;SDS011;13733;51.178;4.450;2023-07-29T05:14:45;3.50;;;1.90;;
25936;SDS011;13733;51.178;4.450;2023-07-29T05:17:11;2.30;;;1.90;;
25936;SDS011;13733;51.178;4.450;2023-07-29T05:19:36;3.65;;;1.98;;
25936;SDS011;13733;51.178;4.450;2023-07-29T05:22:02;3.17;;;2.20;;
25936;SDS011;13733;51.178;4.450;2023-07-29T05:24:28;4.72;;;1.70;;
25936;SDS011;13733;51.178;4.450;2023-07-29T05:26:54;2.58;;;1.70;;
25936;SDS011;13733;51.178;4.450;2023-07-29T05:29:20;3.70;;;2.35;;
25936;SDS011;13733;51.178;4.450;2023-07-29T05:31:46;4.68;;;2.08;;
25936;SDS011;13733;51.178;4.450;2023-07-29T05:34:12;3.90;;;2.00;;
25936;SDS011;13733;51.178;4.450;2023-07-29T05:36:38;3.35;;;2.28;;
25936;SDS011;13733;51.178;4.450;2023-07-29T05:39:04;3.33;;;2.25;;
25936;SDS011;13733;51.178;4.450;2023-07-29T05:41:30;5.22;;;2.20;;
25936;SDS011;13733;51.178;4.450;2023-07-29T05:43:56;5.15;;;2.40;;
25936;SDS011;13733;51.178;4.450;2023-07-29T05:46:23;4.40;;;2.00;;
25936;SDS011;13733;51.178;4.450;2023-07-29T05:48:49;3.88;;;2.20;;
25936;SDS011;13733;51.178;4.450;2023-07-29T05:51:14;5.22;;;2.10;;
25936;SDS011;13733;51.178;4.450;2023-07-29T05:53:40;2.45;;;1.83;;
25936;SDS011;13733;51.178;4.450;2023-07-29T05:56:06;4.80;;;2.30;;
25936;SDS011;13733;51.178;4.450;2023-07-29T05:58:32;4.68;;;1.70;;
25936;SDS011;13733;51.178;4.450;2023-07-29T06:00:58;4.22;;;1.90;;
25936;SDS011;13733;51.178;4.450;2023-07-29T06:03:23;4.20;;;2.45;;
25936;SDS011;13733;51.178;4.450;2023-07-29T06:05:50;7.63;;;2.38;;
25936;SDS011;13733;51.178;4.450;2023-07-29T06:08:17;5.75;;;2.55;;
25936;SDS011;13733;51.178;4.450;2023-07-29T06:10:42;5.78;;;2.08;;
25936;SDS011;13733;51.178;4.450;2023-07-29T06:13:08;2.97;;;2.20;;
25936;SDS011;13733;51.178;4.450;2023-07-29T06:15:34;4.20;;;2.20;;
25936;SDS011;13733;51.178;4.450;2023-07-29T06:17:59;5.18;;;2.00;;
25936;SDS011;13733;51.178;4.450;2023-07-29T06:20:26;4.40;;;2.45;;
25936;SDS011;13733;51.178;4.450;2023-07-29T06:22:52;3.83;;;2.08;;
25936;SDS011;13733;51.178;4.450;2023-07-29T06:25:18;3.95;;;2.45;;
25936;SDS011;13733;51.178;4.450;2023-07-29T06:27:44;4.43;;;2.28;;
25936;SDS011;13733;51.178;4.450;2023-07-29T06:30:10;5.22;;;2.42;;
25936;SDS011;13733;51.178;4.450;2023-07-29T06:32:36;4.30;;;2.25;;
25936;SDS011;13733;51.178;4.450;2023-07-29T06:35:02;4.13;;;2.00;;
25936;SDS011;13733;51.178;4.450;2023-07-29T06:37:28;3.03;;;2.00;;
25936;SDS011;13733;51.178;4.450;2023-07-29T06:39:53;2.60;;;1.88;;
25936;SDS011;13733;51.178;4.450;2023-07-29T06:42:19;4.05;;;1.90;;
25936;SDS011;13733;51.178;4.450;2023-07-29T06:44:45;4.55;;;2.00;;
25936;SDS011;13733;51.178;4.450;2023-07-29T06:47:13;4.18;;;1.70;;
25936;SDS011;13733;51.178;4.450;2023-07-29T06:49:39;5.28;;;2.00;;
25936;SDS011;13733;51.178;4.450;2023-07-29T06:52:05;2.50;;;1.98;;
25936;SDS011;13733;51.178;4.450;2023-07-29T06:54:31;2.35;;;1.77;;
25936;SDS011;13733;51.178;4.450;2023-07-29T06:56:57;4.35;;;1.90;;
25936;SDS011;13733;51.178;4.450;2023-07-29T06:59:23;2.35;;;1.70;;
25936;SDS011;13733;51.178;4.450;2023-07-29T07:01:50;4.07;;;1.83;;
25936;SDS011;13733;51.178;4.450;2023-07-29T07:04:15;3.00;;;1.90;;
25936;SDS011;13733;51.178;4.450;2023-07-29T07:06:41;2.05;;;1.70;;
25936;SDS011;13733;51.178;4.450;2023-07-29T07:09:07;3.60;;;1.70;;
25936;SDS011;13733;51.178;4.450;2023-07-29T07:11:32;4.72;;;1.80;;
25936;SDS011;13733;51.178;4.450;2023-07-29T07:13:58;2.22;;;1.60;;
25936;SDS011;13733;51.178;4.450;2023-07-29T07:16:24;2.13;;;1.45;;
25936;SDS011;13733;51.178;4.450;2023-07-29T07:18:50;1.70;;;1.60;;
25936;SDS011;13733;51.178;4.450;2023-07-29T07:21:15;3.25;;;1.58;;
25936;SDS011;13733;51.178;4.450;2023-07-29T07:23:41;5.32;;;1.80;;
25936;SDS011;13733;51.178;4.450;2023-07-29T07:26:07;6.35;;;1.60;;
25936;SDS011;13733;51.178;4.450;2023-07-29T07:28:32;4.28;;;1.70;;
25936;SDS011;13733;51.178;4.450;2023-07-29T07:30:58;3.88;;;1.80;;
25936;SDS011;13733;51.178;4.450;2023-07-29T07:33:24;3.42;;;1.75;;
25936;SDS011;13733;51.178;4.450;2023-07-29T07:35:50;4.32;;;1.70;;
25936;SDS011;13733;51.178;4.450;2023-07-29T07:38:15;1.67;;;1.58;;
25936;SDS011;13733;51.178;4.450;2023-07-29T07:40:41;3.10;;;1.48;;
25936;SDS011;13733;51.178;4.450;2023-07-29T07:43:07;1.73;;;1.35;;
25936;SDS011;13733;51.178;4.450;2023-07-29T07:45:32;3.03;;;1.70;;
25936;SDS011;13733;51.178;4.450;2023-07-29T07:47:58;2.38;;;1.73;;
25936;SDS011;13733;51.178;4.450;2023-07-29T07:50:24;2.17;;;1.48;;
25936;SDS011;13733;51.178;4.450;2023-07-29T07:52:50;4.18;;;1.75;;
25936;SDS011;13733;51.178;4.450;2023-07-29T07:55:15;2.05;;;1.50;;
25936;SDS011;13733;51.178;4.450;2023-07-29T07:57:41;1.98;;;1.70;;
25936;SDS011;13733;51.178;4.450;2023-07-29T08:00:07;2.67;;;1.48;;
25936;SDS011;13733;51.178;4.450;2023-07-29T08:02:43;5.85;;;1.50;;
25936;SDS011;13733;51.178;4.450;2023-07-29T08:05:09;2.17;;;1.50;;
25936;SDS011;13733;51.178;4.450;2023-07-29T08:07:35;2.55;;;1.80;;
25936;SDS011;13733;51.178;4.450;2023-07-29T08:10:00;3.10;;;1.65;;
25936;SDS011;13733;51.178;4.450;2023-07-29T08:12:26;1.90;;;1.50;;
25936;SDS011;13733;51.178;4.450;2023-07-29T08:14:52;2.83;;;1.70;;
25936;SDS011;13733;51.178;4.450;2023-07-29T08:17:18;6.05;;;1.48;;
25936;SDS011;13733;51.178;4.450;2023-07-29T08:19:43;6.90;;;1.73;;
25936;SDS011;13733;51.178;4.450;2023-07-29T08:22:09;1.75;;;1.40;;
25936;SDS011;13733;51.178;4.450;2023-07-29T08:24:35;3.17;;;1.50;;
25936;SDS011;13733;51.178;4.450;2023-07-29T08:27:00;1.52;;;1.42;;
25936;SDS011;13733;51.178;4.450;2023-07-29T08:29:26;2.58;;;1.63;;
25936;SDS011;13733;51.178;4.450;2023-07-29T08:31:52;2.17;;;1.40;;
25936;SDS011;13733;51.178;4.450;2023-07-29T08:34:17;3.83;;;1.67;;
25936;SDS011;13733;51.178;4.450;2023-07-29T08:36:43;2.03;;;1.60;;
25936;SDS011;13733;51.178;4.450;2023-07-29T08:39:09;3.00;;;1.98;;
25936;SDS011;13733;51.178;4.450;2023-07-29T08:41:41;2.28;;;1.50;;
25936;SDS011;13733;51.178;4.450;2023-07-29T08:44:10;2.53;;;1.58;;
25936;SDS011;13733;51.178;4.450;2023-07-29T08:46:42;2.28;;;1.50;;
25936;SDS011;13733;51.178;4.450;2023-07-29T08:49:07;3.38;;;1.75;;
25936;SDS011;13733;51.178;4.450;2023-07-29T08:51:34;2.38;;;1.70;;
25936;SDS011;13733;51.178;4.450;2023-07-29T08:54:00;3.75;;;1.50;;
25936;SDS011;13733;51.178;4.450;2023-07-29T08:56:27;2.03;;;1.60;;
25936;SDS011;13733;51.178;4.450;2023-07-29T08:58:53;4.43;;;2.00;;
25936;SDS011;13733;51.178;4.450;2023-07-29T09:01:19;4.30;;;1.88;;
25936;SDS011;13733;51.178;4.450;2023-07-29T09:03:46;2.50;;;1.67;;
25936;SDS011;13733;51.178;4.450;2023-07-29T09:06:12;2.30;;;1.75;;
25936;SDS011;13733;51.178;4.450;2023-07-29T09:08:39;5.38;;;1.95;;
25936;SDS011;13733;51.178;4.450;2023-07-29T09:11:06;1.90;;;1.60;;
25936;SDS011;13733;51.178;4.450;2023-07-29T09:13:32;2.97;;;1.85;;
25936;SDS011;13733;51.178;4.450;2023-07-29T09:15:58;3.15;;;1.83;;
25936;SDS011;13733;51.178;4.450;2023-07-29T09:18:25;4.70;;;2.10;;
25936;SDS011;13733;51.178;4.450;2023-07-29T09:20:52;4.53;;;1.92;;
25936;SDS011;13733;51.178;4.450;2023-07-29T09:23:18;2.53;;;1.73;;
25936;SDS011;13733;51.178;4.450;2023-07-29T09:25:47;2.83;;;1.80;;
25936;SDS011;13733;51.178;4.450;2023-07-29T09:28:14;3.28;;;1.92;;
25936;SDS011;13733;51.178;4.450;2023-07-29T09:30:42;3.03;;;1.80;;
25936;SDS011;13733;51.178;4.450;2023-07-29T09:33:10;2.30;;;1.70;;
25936;SDS011;13733;51.178;4.450;2023-07-29T09:35:37;4.53;;;1.80;;
25936;SDS011;13733;51.178;4.450;2023-07-29T09:38:05;1.67;;;1.58;;
25936;SDS011;13733;51.178;4.450;2023-07-29T09:40:38;5.10;;;2.28;;
25936;SDS011;13733;51.178;4.450;2023-07-29T09:43:05;4.30;;;2.00;;
25936;SDS011;13733;51.178;4.450;2023-07-29T09:45:35;2.70;;;1.80;;
25936;SDS011;13733;51.178;4.450;2023-07-29T09:48:02;4.55;;;1.75;;
25936;SDS011;13733;51.178;4.450;2023-07-29T09:50:30;4.22;;;1.80;;
25936;SDS011;13733;51.178;4.450;2023-07-29T09:52:56;2.63;;;1.70;;
25936;SDS011;13733;51.178;4.450;2023-07-29T09:55:26;4.22;;;2.13;;
25936;SDS011;13733;51.178;4.450;2023-07-29T09:57:58;2.10;;;1.90;;
25936;SDS011;13733;51.178;4.450;2023-07-29T10:00:30;3.63;;;2.00;;
25936;SDS011;13733;51.178;4.450;2023-07-29T10:02:57;6.57;;;2.00;;
25936;SDS011;13733;51.178;4.450;2023-07-29T10:05:25;2.70;;;2.00;;
25936;SDS011;13733;51.178;4.450;2023-07-29T10:07:52;4.75;;;2.47;;
25936;SDS011;13733;51.178;4.450;2023-07-29T10:10:20;3.63;;;2.00;;
25936;SDS011;13733;51.178;4.450;2023-07-29T10:12:47;4.82;;;2.20;;
25936;SDS011;13733;51.178;4.450;2023-07-29T10:15:13;4.15;;;1.90;;
25936;SDS011;13733;51.178;4.450;2023-07-29T10:17:41;2.78;;;1.95;;
25936;SDS011;13733;51.178;4.450;2023-07-29T10:20:08;3.42;;;1.80;;
25936;SDS011;13733;51.178;4.450;2023-07-29T10:22:39;2.47;;;2.00;;
25936;SDS011;13733;51.178;4.450;2023-07-29T10:25:18;2.78;;;2.03;;
25936;SDS011;13733;51.178;4.450;2023-07-29T10:27:48;4.70;;;1.90;;
25936;SDS011;13733;51.178;4.450;2023-07-29T10:30:21;2.03;;;1.73;;
25936;SDS011;13733;51.178;4.450;2023-07-29T10:32:47;2.90;;;2.00;;
25936;SDS011;13733;51.178;4.450;2023-07-29T10:35:14;2.92;;;1.80;;
25936;SDS011;13733;51.178;4.450;2023-07-29T10:37:41;1.90;;;1.70;;
25936;SDS011;13733;51.178;4.450;2023-07-29T10:40:08;5.25;;;2.17;;
25936;SDS011;13733;51.178;4.450;2023-07-29T10:42:36;4.60;;;1.80;;
25936;SDS011;13733;51.178;4.450;2023-07-29T10:45:21;2.80;;;1.80;;
25936;SDS011;13733;51.178;4.450;2023-07-29T10:47:47;4.95;;;2.00;;
25936;SDS011;13733;51.178;4.450;2023-07-29T10:50:17;1.92;;;1.80;;
25936;SDS011;13733;51.178;4.450;2023-07-29T10:52:44;3.50;;;2.08;;
25936;SDS011;13733;51.178;4.450;2023-07-29T10:55:34;3.90;;;1.70;;
25936;SDS011;13733;51.178;4.450;2023-07-29T11:00:38;6.78;;;1.90;;
25936;SDS011;13733;51.178;4.450;2023-07-29T11:03:06;1.88;;;1.60;;
25936;SDS011;13733;51.178;4.450;2023-07-29T11:05:49;6.18;;;1.83;;
25936;SDS011;13733;51.178;4.450;2023-07-29T11:08:34;3.63;;;1.60;;
25936;SDS011;13733;51.178;4.450;2023-07-29T11:11:04;2.28;;;1.90;;
25936;SDS011;13733;51.178;4.450;2023-07-29T11:13:36;2.92;;;1.83;;
25936;SDS011;13733;51.178;4.450;2023-07-29T11:16:03;1.83;;;1.60;;
25936;SDS011;13733;51.178;4.450;2023-07-29T11:18:34;4.57;;;1.80;;
25936;SDS011;13733;51.178;4.450;2023-07-29T11:21:01;2.53;;;1.80;;
25936;SDS011;13733;51.178;4.450;2023-07-29T11:23:29;2.25;;;1.85;;
25936;SDS011;13733;51.178;4.450;2023-07-29T11:25:56;3.00;;;2.00;;
25936;SDS011;13733;51.178;4.450;2023-07-29T11:28:22;5.22;;;2.08;;
25936;SDS011;13733;51.178;4.450;2023-07-29T11:30:49;3.85;;;2.10;;
25936;SDS011;13733;51.178;4.450;2023-07-29T11:33:23;5.53;;;2.63;;
25936;SDS011;13733;51.178;4.450;2023-07-29T11:35:50;12.27;;;3.65;;
25936;SDS011;13733;51.178;4.450;2023-07-29T11:38:17;13.73;;;4.05;;
25936;SDS011;13733;51.178;4.450;2023-07-29T11:40:53;6.18;;;3.28;;
25936;SDS011;13733;51.178;4.450;2023-07-29T11:43:23;5.28;;;3.33;;
25936;SDS011;13733;51.178;4.450;2023-07-29T11:45:49;4.45;;;3.10;;
25936;SDS011;13733;51.178;4.450;2023-07-29T11:48:16;4.40;;;2.95;;
25936;SDS011;13733;51.178;4.450;2023-07-29T11:50:41;5.10;;;2.78;;
25936;SDS011;13733;51.178;4.450;2023-07-29T11:53:07;4.30;;;2.83;;
25936;SDS011;13733;51.178;4.450;2023-07-29T11:55:33;4.13;;;2.80;;
25936;SDS011;13733;51.178;4.450;2023-07-29T11:58:00;3.47;;;2.30;;
25936;SDS011;13733;51.178;4.450;2023-07-29T12:00:26;2.13;;;1.90;;
25936;SDS011;13733;51.178;4.450;2023-07-29T12:02:52;2.70;;;2.25;;
25936;SDS011;13733;51.178;4.450;2023-07-29T12:05:20;2.95;;;2.30;;
25936;SDS011;13733;51.178;4.450;2023-07-29T12:07:47;2.45;;;2.10;;
25936;SDS011;13733;51.178;4.450;2023-07-29T12:10:13;4.13;;;2.00;;
25936;SDS011;13733;51.178;4.450;2023-07-29T12:12:44;2.22;;;2.03;;
25936;SDS011;13733;51.178;4.450;2023-07-29T12:15:22;3.63;;;2.25;;
25936;SDS011;13733;51.178;4.450;2023-07-29T12:17:51;1.98;;;1.80;;
25936;SDS011;13733;51.178;4.450;2023-07-29T12:20:19;2.47;;;2.00;;
25936;SDS011;13733;51.178;4.450;2023-07-29T12:22:45;2.28;;;2.00;;
25936;SDS011;13733;51.178;4.450;2023-07-29T12:25:20;3.40;;;1.80;;
25936;SDS011;13733;51.178;4.450;2023-07-29T12:27:46;3.70;;;1.73;;
25936;SDS011;13733;51.178;4.450;2023-07-29T12:30:12;2.65;;;1.80;;
25936;SDS011;13733;51.178;4.450;2023-07-29T12:32:44;1.92;;;1.65;;
25936;SDS011;13733;51.178;4.450;2023-07-29T12:35:11;1.85;;;1.75;;
25936;SDS011;13733;51.178;4.450;2023-07-29T12:37:37;1.95;;;1.80;;
25936;SDS011;13733;51.178;4.450;2023-07-29T12:40:07;1.65;;;1.52;;
25936;SDS011;13733;51.178;4.450;2023-07-29T12:42:34;2.25;;;1.40;;
25936;SDS011;13733;51.178;4.450;2023-07-29T12:45:00;2.28;;;1.60;;
25936;SDS011;13733;51.178;4.450;2023-07-29T12:47:26;2.60;;;1.50;;
25936;SDS011;13733;51.178;4.450;2023-07-29T12:49:51;2.05;;;1.50;;
25936;SDS011;13733;51.178;4.450;2023-07-29T12:52:17;1.60;;;1.33;;
25936;SDS011;13733;51.178;4.450;2023-07-29T12:54:43;1.88;;;1.40;;
25936;SDS011;13733;51.178;4.450;2023-07-29T12:57:09;1.48;;;1.13;;
25936;SDS011;13733;51.178;4.450;2023-07-29T12:59:35;4.28;;;1.38;;
25936;SDS011;13733;51.178;4.450;2023-07-29T13:02:02;2.10;;;1.20;;
25936;SDS011;13733;51.178;4.450;2023-07-29T13:04:27;2.40;;;1.30;;
25936;SDS011;13733;51.178;4.450;2023-07-29T13:06:53;3.25;;;1.40;;
25936;SDS011;13733;51.178;4.450;2023-07-29T13:09:19;4.00;;;1.40;;
25936;SDS011;13733;51.178;4.450;2023-07-29T13:11:45;3.05;;;1.10;;
25936;SDS011;13733;51.178;4.450;2023-07-29T13:14:11;2.13;;;1.40;;
25936;SDS011;13733;51.178;4.450;2023-07-29T13:16:37;2.58;;;1.10;;
25936;SDS011;13733;51.178;4.450;2023-07-29T13:19:03;1.95;;;1.40;;
25936;SDS011;13733;51.178;4.450;2023-07-29T13:21:28;1.60;;;1.15;;
25936;SDS011;13733;51.178;4.450;2023-07-29T13:23:54;3.42;;;1.40;;
25936;SDS011;13733;51.178;4.450;2023-07-29T13:26:20;4.05;;;1.30;;
25936;SDS011;13733;51.178;4.450;2023-07-29T13:28:46;4.00;;;1.35;;
25936;SDS011;13733;51.178;4.450;2023-07-29T13:31:12;6.35;;;1.30;;
25936;SDS011;13733;51.178;4.450;2023-07-29T13:33:38;3.20;;;1.48;;
25936;SDS011;13733;51.178;4.450;2023-07-29T13:36:05;3.55;;;1.10;;
25936;SDS011;13733;51.178;4.450;2023-07-29T13:38:30;1.48;;;1.25;;
25936;SDS011;13733;51.178;4.450;2023-07-29T13:40:56;2.58;;;1.50;;
25936;SDS011;13733;51.178;4.450;2023-07-29T13:43:22;2.65;;;1.40;;
25936;SDS011;13733;51.178;4.450;2023-07-29T13:45:48;2.50;;;1.40;;
25936;SDS011;13733;51.178;4.450;2023-07-29T13:48:15;3.92;;;1.30;;
25936;SDS011;13733;51.178;4.450;2023-07-29T13:50:41;2.25;;;1.30;;
25936;SDS011;13733;51.178;4.450;2023-07-29T13:53:09;1.73;;;1.40;;
25936;SDS011;13733;51.178;4.450;2023-07-29T13:55:42;1.65;;;1.20;;
25936;SDS011;13733;51.178;4.450;2023-07-29T13:58:08;3.10;;;1.42;;
25936;SDS011;13733;51.178;4.450;2023-07-29T14:00:33;1.58;;;1.40;;
25936;SDS011;13733;51.178;4.450;2023-07-29T14:02:59;2.17;;;1.27;;
25936;SDS011;13733;51.178;4.450;2023-07-29T14:05:25;4.00;;;1.30;;
25936;SDS011;13733;51.178;4.450;2023-07-29T14:07:51;1.83;;;1.60;;
25936;SDS011;13733;51.178;4.450;2023-07-29T14:10:16;2.60;;;1.42;;
25936;SDS011;13733;51.178;4.450;2023-07-29T14:12:43;3.25;;;1.25;;
25936;SDS011;13733;51.178;4.450;2023-07-29T14:15:09;1.77;;;1.40;;
25936;SDS011;13733;51.178;4.450;2023-07-29T14:17:35;5.18;;;1.70;;
25936;SDS011;13733;51.178;4.450;2023-07-29T14:20:01;2.88;;;1.85;;
25936;SDS011;13733;51.178;4.450;2023-07-29T14:22:26;4.05;;;1.42;;
25936;SDS011;13733;51.178;4.450;2023-07-29T14:24:52;1.38;;;1.27;;
25936;SDS011;13733;51.178;4.450;2023-07-29T14:27:18;2.05;;;1.55;;
25936;SDS011;13733;51.178;4.450;2023-07-29T14:29:44;2.00;;;1.67;;
25936;SDS011;13733;51.178;4.450;2023-07-29T14:32:11;4.55;;;1.42;;
25936;SDS011;13733;51.178;4.450;2023-07-29T14:34:36;3.17;;;1.52;;
25936;SDS011;13733;51.178;4.450;2023-07-29T14:37:02;3.78;;;1.58;;
25936;SDS011;13733;51.178;4.450;2023-07-29T14:39:28;2.88;;;1.48;;
25936;SDS011;13733;51.178;4.450;2023-07-29T14:41:53;3.05;;;1.95;;
25936;SDS011;13733;51.178;4.450;2023-07-29T14:44:19;3.63;;;1.77;;
25936;SDS011;13733;51.178;4.450;2023-07-29T14:46:45;3.33;;;2.00;;
25936;SDS011;13733;51.178;4.450;2023-07-29T14:49:11;3.97;;;1.60;;
25936;SDS011;13733;51.178;4.450;2023-07-29T14:51:37;1.80;;;1.50;;
25936;SDS011;13733;51.178;4.450;2023-07-29T14:54:03;2.35;;;1.55;;
25936;SDS011;13733;51.178;4.450;2023-07-29T14:56:28;1.90;;;1.52;;